METAR Data
IDs: Format: Raw Decoded Include TAF

Data at: 1519 UTC 21 Sep 2018

KMUT 211515Z AUTO 30018G27KT 10SM SCT023 BKN028 18/12 A3002 RMK AO2
KMUT 211455Z AUTO 30019KT 10SM OVC022 18/13 A3000 RMK AO2
KMUT 211435Z AUTO 30017G24KT 10SM OVC022 18/13 A2999 RMK AO2
KMUT 211415Z AUTO 30020G29KT 10SM OVC021 18/13 A2999 RMK AO2
KMUT 211355Z AUTO 29019G26KT 10SM OVC019 18/13 A2997 RMK AO2
KMUT 211335Z AUTO 30016G22KT 10SM BKN017 18/14 A2996 RMK AO2
KMUT 211315Z AUTO 29018KT 10SM BKN018 18/15 A2994 RMK AO2
KMUT 211255Z AUTO 28014G21KT 10SM SCT018 18/15 A2993 RMK AO2
KMUT 211235Z AUTO 28021G30KT 10SM SCT015 SCT021 18/15 A2992 RMK AO2
KMUT 211215Z AUTO 29018G24KT 10SM FEW011 BKN017 OVC034 21/18 A2990 RMK AO2
KMUT 211155Z AUTO 28012G19KT 10SM OVC012 21/19 A2989 RMK AO2
KMUT 211135Z AUTO 25011KT 8SM BKN015 OVC021 21/19 A2987 RMK AO2
KMUT 211115Z AUTO 24011G16KT 10SM SCT018 BKN025 BKN039 21/19 A2986 RMK AO2
KMUT 211055Z AUTO 25010G15KT 10SM SCT026 BKN031 BKN036 21/18 A2985 RMK AO2
KMUT 211035Z AUTO 24010KT 10SM SCT030 SCT038 21/18 A2985 RMK AO2
KMUT 211015Z AUTO 24010KT 10SM CLR 21/18 A2985 RMK AO2
KMUT 210955Z AUTO 23008KT 10SM CLR 21/18 A2983 RMK AO2
KMUT 210935Z AUTO 22007KT 10SM FEW110 21/18 A2982 RMK AO2
KMUT 210915Z AUTO 22008KT 10SM FEW090 21/18 A2983 RMK AO2
KMUT 210855Z AUTO 21007KT 10SM FEW065 BKN085 21/19 A2982 RMK AO2
KMUT 210835Z AUTO 21007KT 10SM SCT065 BKN085 OVC100 21/19 A2982 RMK AO2
KMUT 210815Z AUTO 18005KT 10SM SCT070 SCT080 SCT090 21/19 A2982 RMK AO2
KMUT 210755Z AUTO 25007KT 10SM SCT065 SCT075 BKN090 21/19 A2982 RMK AO2
KMUT 210735Z AUTO 26008KT 10SM SCT060 BKN080 BKN090 21/19 A2983 RMK AO2
KMUT 210715Z AUTO 27009KT 10SM SCT070 BKN090 BKN110 22/19 A2982 RMK AO2
KMUT 210655Z AUTO 27011KT 10SM FEW033 SCT050 BKN070 22/19 A2982 RMK AO2
KMUT 210635Z AUTO 29019G31KT 10SM FEW036 SCT055 OVC070 24/19 A2982 RMK AO2
KMUT 210615Z AUTO 20017G23KT 10SM BKN070 BKN080 28/21 A2975 RMK AO2
KMUT 210555Z AUTO 20016G22KT 10SM CLR 27/21 A2975 RMK AO2
KMUT 210535Z AUTO 20014G23KT 10SM FEW060 28/21 A2976 RMK AO2
KMUT 210515Z AUTO 20014G24KT 10SM BKN060 28/21 A2976 RMK AO2
KMUT 210455Z AUTO 20014G19KT 10SM SCT060 28/21 A2977 RMK AO2
KMUT 210435Z AUTO 20014G20KT 10SM CLR 28/21 A2976 RMK AO2
KMUT 210415Z AUTO 19015KT 10SM CLR 29/21 A2976 RMK AO2
KMUT 210355Z AUTO 19017G23KT 10SM FEW060 29/21 A2975 RMK AO2
KMUT 210335Z AUTO 19016G21KT 10SM FEW060 29/21 A2976 RMK AO2
KMUT 210315Z AUTO 19014G21KT 10SM CLR 29/21 A2976 RMK AO2
KMUT 210255Z AUTO 19014G21KT 10SM CLR 29/21 A2975 RMK AO2
KMUT 210235Z AUTO 18014KT 10SM CLR 29/21 A2975 RMK AO2
KMUT 210215Z AUTO 18012KT 10SM CLR 29/22 A2975 RMK AO2
KMUT 210155Z AUTO 18011G18KT 10SM CLR 29/22 A2975 RMK AO2
KMUT 210135Z AUTO 18012KT 10SM CLR 29/22 A2974 RMK AO2
KMUT 210115Z AUTO 19009KT 10SM CLR 29/22 A2974 RMK AO2
KMUT 210055Z AUTO 19009KT 10SM CLR 29/22 A2973 RMK AO2
KMUT 210035Z AUTO 18011G16KT 10SM CLR 30/21 A2972 RMK AO2
KMUT 210015Z AUTO 18012G17KT 10SM CLR 30/21 A2972 RMK AO2
KMUT 202355Z AUTO 19015G21KT 10SM CLR 31/21 A2972 RMK AO2
KMUT 202335Z AUTO 19016G22KT 10SM CLR 31/21 A2972 RMK AO2
KMUT 202315Z AUTO 19016G25KT 10SM CLR 32/21 A2972 RMK AO2
KMUT 202255Z AUTO 19016G27KT 10SM CLR 32/21 A2973 RMK AO2
KMUT 202235Z AUTO 19022G32KT 10SM CLR 33/20 A2973 RMK AO2
KMUT 202215Z AUTO 19023G29KT 10SM CLR 33/21 A2974 RMK AO2
KMUT 202155Z AUTO 19023G29KT 10SM CLR 34/20 A2975 RMK AO2
KMUT 202135Z AUTO 19020G29KT 10SM FEW060 34/21 A2976 RMK AO2
KMUT 202115Z AUTO 20022G27KT 10SM SCT060 34/21 A2976 RMK AO2
KMUT 202055Z AUTO 19018G28KT 10SM SCT060 34/22 A2977 RMK AO2
KMUT 202035Z AUTO 17017G27KT 10SM SCT060 SCT070 34/22 A2978 RMK AO2
KMUT 202015Z AUTO 19019G25KT 10SM FEW060 SCT070 SCT080 34/21 A2978 RMK AO2
KMUT 201955Z AUTO 19020G25KT 10SM SCT060 BKN070 BKN080 34/21 A2979 RMK AO2
KMUT 201935Z AUTO 19016G24KT 10SM SCT055 BKN070 BKN080 33/21 A2980 RMK AO2
KMUT 201915Z AUTO 20015G21KT 10SM BKN055 BKN065 33/22 A2981 RMK AO2
KMUT 201855Z AUTO 21014G21KT 10SM SCT055 SCT065 34/21 A2982 RMK AO2
KMUT 201835Z AUTO 21016G21KT 10SM SCT055 SCT065 33/21 A2982 RMK AO2
KMUT 201815Z AUTO 21018KT 10SM CLR 33/21 A2983 RMK AO2
KMUT 201755Z AUTO 22017KT 10SM FEW050 33/21 A2984 RMK AO2
KMUT 201735Z AUTO 23013G22KT 10SM FEW050 33/22 A2985 RMK AO2
KMUT 201715Z AUTO 21017G22KT 10SM FEW050 33/22 A2986 RMK AO2
KMUT 201655Z AUTO 22011G17KT 10SM CLR 32/22 A2987 RMK AO2
KMUT 201635Z AUTO 22008KT 10SM FEW060 31/22 A2988 RMK AO2
KMUT 201615Z AUTO 18010KT 10SM BKN060 30/23 A2989 RMK AO2
KMUT 201555Z AUTO 18006KT 10SM BKN065 29/23 A2989 RMK AO2
KMUT 201535Z AUTO 17005KT 10SM BKN065 27/22 A2990 RMK AO2
KMUT 201515Z AUTO 15005KT 10SM SCT060 26/22 A2991 RMK AO2
KMUT 201455Z AUTO 16004KT 10SM CLR 25/21 A2991 RMK AO2
KMUT 201435Z AUTO 00000KT 10SM CLR 23/21 A2991 RMK AO2
KMUT 201415Z AUTO 00000KT 9SM CLR 22/20 A2991 RMK AO2
KMUT 201355Z AUTO 00000KT 9SM CLR 21/19 A2991 RMK AO2
KMUT 201335Z AUTO 08004KT 8SM CLR 21/19 A2992 RMK AO2
KMUT 201315Z AUTO 07004KT 6SM BR CLR 20/19 A2992 RMK AO2
KMUT 201255Z AUTO 08005KT 5SM BR FEW070 20/19 A2992 RMK AO2
KMUT 201235Z AUTO 08004KT 5SM BR FEW005 SCT070 20/19 A2992 RMK AO2
KMUT 201215Z AUTO 07004KT 4SM BR SCT005 19/19 A2992 RMK AO2
KMUT 201155Z AUTO 05004KT 5SM BR BKN005 19/19 A2992 RMK AO2
KMUT 201135Z AUTO 04004KT 5SM BR BKN005 BKN075 19/18 A2992 RMK AO2
KMUT 201115Z AUTO 06004KT 6SM BR FEW005 SCT090 19/19 A2992 RMK AO2
KMUT 201055Z AUTO 06004KT 7SM FEW070 SCT085 20/19 A2992 RMK AO2
KMUT 201035Z AUTO 04004KT 6SM BR FEW005 BKN070 BKN080 20/19 A2992 RMK AO2
KMUT 201015Z AUTO 04005KT 7SM FEW065 20/19 A2992 RMK AO2
KMUT 200955Z AUTO 03006KT 6SM BR CLR 20/19 A2992 RMK AO2
KMUT 200935Z AUTO 05005KT 8SM CLR 20/19 A2992 RMK AO2
KMUT 200915Z AUTO 02006KT 10SM FEW060 FEW075 FEW110 20/19 A2992 RMK AO2
KMUT 200855Z AUTO 00000KT 10SM FEW060 FEW075 SCT110 20/19 A2991 RMK AO2
KMUT 200835Z AUTO 07006KT 10SM FEW055 SCT070 BKN110 20/19 A2991 RMK AO2
KMUT 200815Z AUTO 00000KT 10SM FEW055 SCT065 BKN085 20/19 A2991 RMK AO2
KMUT 200755Z AUTO 00000KT 10SM SCT110 20/19 A2991 RMK AO2
KMUT 200735Z AUTO 00000KT 10SM FEW060 FEW070 BKN110 21/19 A2991 RMK AO2
KMUT 200715Z AUTO 00000KT 10SM FEW060 FEW070 OVC110 21/19 A2992 RMK AO2
KMUT 200655Z AUTO 00000KT 10SM OVC110 21/19 A2992 RMK AO2
KMUT 200635Z AUTO 00000KT 10SM SCT100 SCT120 21/19 A2993 RMK AO2
KMUT 200615Z AUTO 00000KT 10SM BKN100 21/19 A2993 RMK AO2
KMUT 200555Z AUTO 07005KT 10SM OVC095 21/19 A2993 RMK AO2
KMUT 200535Z AUTO 06004KT 10SM OVC095 21/19 A2994 RMK AO2
KMUT 200515Z AUTO 07004KT 10SM BKN100 21/19 A2994 RMK AO2
KMUT 200455Z AUTO 04006KT 10SM BKN100 21/19 A2994 RMK AO2
KMUT 200435Z AUTO 04006KT 10SM CLR 20/19 A2993 RMK AO2
KMUT 200415Z AUTO 00000KT 10SM CLR 21/19 A2992 RMK AO2
KMUT 200355Z AUTO 13004KT 10SM CLR 21/19 A2992 RMK AO2
KMUT 200335Z AUTO 12004KT 10SM CLR 21/19 A2992 RMK AO2